Golden Triangle Regional Airport
KGTR : now visible

Airfield :











YOU CAN JOIN US ON...

 
LOGIN :

Register | Disclaimer

   EN    FR    IT 

 









Legend :    VFR   Marginal VFR   IFR   Intensive IFR   Very Intensive IFR
Visi :
Ceiling :
>= 8 km
>= 3000ft
5 to 8 km
1000 to 3000 ft
1500m to 5 km
500 to 1000 ft
800 to 1500m
200 to 500 ft
< 800m
< 200 ft
Symbols :   Thunderstorms  Fog  Heavy snow  Heavy precipitations  Wind > 20 kt






- Airport Elevation : 264 ft


KGTR - Golden Triangle Regional

CURRENT METAR :
  • 161056Z 36005KT 10SM CLR 10/08 A2995 RMK AO2 SLP148 T01000083

EXPIRED METARs :
  • 160956Z AUTO 02007KT 10SM CLR 11/08 A2994 RMK AO2 SLP145 T01060083
  • 160856Z AUTO 35003KT 10SM CLR 12/08 A2995 RMK AO2 SLP149 T01170083 56002

TAF KGTR
Valid from the 16 at 06:00 until the 17 at 06:00 UTC


160526Z 1606/1706 01005KT P6SM SKC
FM161500 09006KT P6SM SCT060 BKN100
FM170000 VRB03KT 6SM SHRA OVC090
FM170400 06004KT 6SM -RA BR OVC015
KZME FIR / North America



MET'MAP, your aeronautical weather chart ! - Copyright ORBIFLY December 2007 - Disclaimer

ORBIFLY MET'MAP TEAM :

Programming & Development : Alexandra Zaïnal
Concept & original design : Baudouin d'Aumeries
Assistance for programming : Marc-Olivier Méhu
Technical & hardware support : Manuel Goepfert

Contact : metmap@orbifly.com




SOURCES & CREDITS :

   NOAA       Earth
Advisory